sensor_id;sensor_type;location;lat;lon;timestamp;pressure;altitude;pressure_sealevel;temperature;humidity
49627;BME280;35527;54.616;39.786;2022-10-23T00:00:11;100285.63;;;4.73;100.00
49627;BME280;35527;54.616;39.786;2022-10-23T00:03:18;100260.94;;;4.62;100.00
49627;BME280;35527;54.616;39.786;2022-10-23T00:06:21;100274.53;;;4.70;100.00
49627;BME280;35527;54.616;39.786;2022-10-23T00:09:23;100256.69;;;4.56;100.00
49627;BME280;35527;54.616;39.786;2022-10-23T00:12:29;100267.72;;;4.67;100.00
49627;BME280;35527;54.616;39.786;2022-10-23T00:15:35;100254.09;;;4.62;100.00
49627;BME280;35527;54.616;39.786;2022-10-23T00:18:40;100256.69;;;4.59;100.00
49627;BME280;35527;54.616;39.786;2022-10-23T00:21:44;100260.03;;;4.66;100.00
49627;BME280;35527;54.616;39.786;2022-10-23T00:24:48;100261.72;;;4.68;100.00
49627;BME280;35527;54.616;39.786;2022-10-23T00:27:54;100237.88;;;4.59;100.00
49627;BME280;35527;54.616;39.786;2022-10-23T00:31:00;100253.19;;;4.68;100.00
49627;BME280;35527;54.616;39.786;2022-10-23T00:34:04;100234.44;;;4.60;100.00
49627;BME280;35527;54.616;39.786;2022-10-23T00:37:13;100237.00;;;4.64;100.00
49627;BME280;35527;54.616;39.786;2022-10-23T00:40:19;100242.09;;;4.67;100.00
49627;BME280;35527;54.616;39.786;2022-10-23T00:43:24;100234.41;;;4.67;100.00
49627;BME280;35527;54.616;39.786;2022-10-23T00:46:30;100217.47;;;4.49;100.00
49627;BME280;35527;54.616;39.786;2022-10-23T00:49:34;100242.16;;;4.57;100.00
49627;BME280;35527;54.616;39.786;2022-10-23T00:52:49;100229.34;;;4.58;100.00
49627;BME280;35527;54.616;39.786;2022-10-23T00:55:54;100229.34;;;4.58;100.00
49627;BME280;35527;54.616;39.786;2022-10-23T00:59:00;100231.03;;;4.61;100.00
49627;BME280;35527;54.616;39.786;2022-10-23T01:02:05;100225.91;;;4.61;100.00
49627;BME280;35527;54.616;39.786;2022-10-23T01:05:12;100225.91;;;4.61;100.00
49627;BME280;35527;54.616;39.786;2022-10-23T01:08:32;100227.59;;;4.65;100.00
49627;BME280;35527;54.616;39.786;2022-10-23T01:18:26;100198.69;;;4.46;100.00
49627;BME280;35527;54.616;39.786;2022-10-23T01:28:04;100196.91;;;4.54;100.00
49627;BME280;35527;54.616;39.786;2022-10-23T01:31:22;100207.16;;;4.54;100.00
49627;BME280;35527;54.616;39.786;2022-10-23T01:34:51;100197.81;;;4.50;100.00
49627;BME280;35527;54.616;39.786;2022-10-23T01:38:09;100193.56;;;4.47;100.00
49627;BME280;35527;54.616;39.786;2022-10-23T01:41:20;100175.69;;;4.37;100.00
49627;BME280;35527;54.616;39.786;2022-10-23T01:47:47;100186.72;;;4.43;100.00
49627;BME280;35527;54.616;39.786;2022-10-23T01:50:52;100185.88;;;4.44;100.00
49627;BME280;35527;54.616;39.786;2022-10-23T01:53:59;100188.50;;;4.37;100.00
49627;BME280;35527;54.616;39.786;2022-10-23T01:57:08;100165.53;;;4.26;100.00
49627;BME280;35527;54.616;39.786;2022-10-23T02:00:14;100153.63;;;4.19;100.00
49627;BME280;35527;54.616;39.786;2022-10-23T02:03:28;100174.06;;;4.28;100.00
49627;BME280;35527;54.616;39.786;2022-10-23T02:07:00;100167.28;;;4.21;100.00
49627;BME280;35527;54.616;39.786;2022-10-23T02:10:06;100166.41;;;4.20;100.00
49627;BME280;35527;54.616;39.786;2022-10-23T02:13:33;100174.97;;;4.19;100.00
49627;BME280;35527;54.616;39.786;2022-10-23T02:16:51;100146.84;;;4.13;100.00
49627;BME280;35527;54.616;39.786;2022-10-23T02:19:59;100161.44;;;4.00;100.00
49627;BME280;35527;54.616;39.786;2022-10-23T02:26:23;100164.94;;;3.87;100.00
49627;BME280;35527;54.616;39.786;2022-10-23T02:32:39;100151.41;;;3.67;100.00
49627;BME280;35527;54.616;39.786;2022-10-23T02:35:47;100153.13;;;3.63;100.00
49627;BME280;35527;54.616;39.786;2022-10-23T02:38:57;100144.63;;;3.56;100.00
49627;BME280;35527;54.616;39.786;2022-10-23T02:48:56;100160.88;;;3.46;100.00
49627;BME280;35527;54.616;39.786;2022-10-23T02:52:57;100159.22;;;3.34;100.00
49627;BME280;35527;54.616;39.786;2022-10-23T02:59:28;100155.00;;;3.30;100.00
49627;BME280;35527;54.616;39.786;2022-10-23T03:02:54;100166.09;;;3.25;100.00
49627;BME280;35527;54.616;39.786;2022-10-23T03:06:01;100166.97;;;3.19;100.00
49627;BME280;35527;54.616;39.786;2022-10-23T03:09:07;100152.50;;;3.10;100.00
49627;BME280;35527;54.616;39.786;2022-10-23T03:12:10;100162.72;;;3.15;100.00
49627;BME280;35527;54.616;39.786;2022-10-23T03:15:16;100161.88;;;3.16;100.00
49627;BME280;35527;54.616;39.786;2022-10-23T03:18:25;100161.88;;;3.10;100.00
49627;BME280;35527;54.616;39.786;2022-10-23T03:21:33;100133.75;;;3.05;100.00
49627;BME280;35527;54.616;39.786;2022-10-23T03:24:42;100159.28;;;3.22;100.00
49627;BME280;35527;54.616;39.786;2022-10-23T03:27:47;100152.44;;;3.35;100.00
49627;BME280;35527;54.616;39.786;2022-10-23T03:30:53;100154.13;;;3.36;100.00
49627;BME280;35527;54.616;39.786;2022-10-23T03:33:57;100139.66;;;3.26;100.00
49627;BME280;35527;54.616;39.786;2022-10-23T03:37:02;100160.06;;;3.39;100.00
49627;BME280;35527;54.616;39.786;2022-10-23T03:40:06;100144.72;;;3.39;100.00
49627;BME280;35527;54.616;39.786;2022-10-23T03:43:11;100131.09;;;3.31;100.00
49627;BME280;35527;54.616;39.786;2022-10-23T03:46:17;100151.53;;;3.47;100.00
49627;BME280;35527;54.616;39.786;2022-10-23T03:49:25;100135.41;;;3.29;100.00
49627;BME280;35527;54.616;39.786;2022-10-23T03:52:35;100138.75;;;3.34;100.00
49627;BME280;35527;54.616;39.786;2022-10-23T03:55:43;100130.25;;;3.32;100.00
49627;BME280;35527;54.616;39.786;2022-10-23T03:58:47;100130.28;;;3.28;100.00
49627;BME280;35527;54.616;39.786;2022-10-23T04:01:49;100139.63;;;3.38;100.00
49627;BME280;35527;54.616;39.786;2022-10-23T04:04:53;100114.03;;;3.32;100.00
49627;BME280;35527;54.616;39.786;2022-10-23T04:07:57;100131.91;;;3.44;100.00
49627;BME280;35527;54.616;39.786;2022-10-23T04:11:01;100125.94;;;3.44;100.00
49627;BME280;35527;54.616;39.786;2022-10-23T04:14:14;100111.50;;;3.35;100.00
49627;BME280;35527;54.616;39.786;2022-10-23T04:17:18;100102.13;;;3.32;100.00
49627;BME280;35527;54.616;39.786;2022-10-23T04:20:25;100122.50;;;3.48;100.00
49627;BME280;35527;54.616;39.786;2022-10-23T04:23:32;100116.50;;;3.52;100.00
49627;BME280;35527;54.616;39.786;2022-10-23T04:26:35;100121.56;;;3.63;100.00
49627;BME280;35527;54.616;39.786;2022-10-23T04:29:39;100121.56;;;3.67;100.00
49627;BME280;35527;54.616;39.786;2022-10-23T04:32:44;100104.53;;;3.61;100.00
49627;BME280;35527;54.616;39.786;2022-10-23T04:35:52;100088.28;;;3.66;100.00
49627;BME280;35527;54.616;39.786;2022-10-23T04:38:55;100090.78;;;3.76;100.00
49627;BME280;35527;54.616;39.786;2022-10-23T04:41:59;100090.69;;;3.86;100.00
49627;BME280;35527;54.616;39.786;2022-10-23T04:45:03;100090.69;;;3.89;100.00
49627;BME280;35527;54.616;39.786;2022-10-23T04:48:09;100057.44;;;3.84;100.00
49627;BME280;35527;54.616;39.786;2022-10-23T04:51:46;100086.34;;;3.97;100.00
49627;BME280;35527;54.616;39.786;2022-10-23T04:55:18;100088.06;;;3.98;100.00
49627;BME280;35527;54.616;39.786;2022-10-23T04:58:41;100070.16;;;3.93;100.00
49627;BME280;35527;54.616;39.786;2022-10-23T05:01:44;100079.50;;;4.03;100.00
49627;BME280;35527;54.616;39.786;2022-10-23T05:04:48;100077.75;;;4.05;100.00
49627;BME280;35527;54.616;39.786;2022-10-23T05:08:13;100053.09;;;3.95;100.00
49627;BME280;35527;54.616;39.786;2022-10-23T05:11:36;100069.13;;;4.16;100.00
49627;BME280;35527;54.616;39.786;2022-10-23T05:14:43;100073.34;;;4.20;100.00
49627;BME280;35527;54.616;39.786;2022-10-23T05:17:50;100073.13;;;4.43;100.00
49627;BME280;35527;54.616;39.786;2022-10-23T05:21:02;100050.72;;;4.63;100.00
49627;BME280;35527;54.616;39.786;2022-10-23T05:24:09;100072.56;;;4.95;100.00
49627;BME280;35527;54.616;39.786;2022-10-23T05:27:13;100044.13;;;6.26;100.00
49627;BME280;35527;54.616;39.786;2022-10-23T05:30:16;100038.94;;;6.29;100.00
49627;BME280;35527;54.616;39.786;2022-10-23T05:33:24;100042.97;;;6.44;100.00
49627;BME280;35527;54.616;39.786;2022-10-23T05:36:30;100031.47;;;6.16;100.00
49627;BME280;35527;54.616;39.786;2022-10-23T05:39:33;100027.03;;;5.73;100.00
49627;BME280;35527;54.616;39.786;2022-10-23T05:42:37;100029.94;;;5.50;100.00
49627;BME280;35527;54.616;39.786;2022-10-23T05:45:41;100032.72;;;5.36;100.00
49627;BME280;35527;54.616;39.786;2022-10-23T05:49:00;100015.88;;;5.15;100.00
49627;BME280;35527;54.616;39.786;2022-10-23T05:52:45;100044.09;;;5.16;100.00
49627;BME280;35527;54.616;39.786;2022-10-23T05:56:08;100011.00;;;4.96;100.00
49627;BME280;35527;54.616;39.786;2022-10-23T05:59:50;100038.09;;;5.17;100.00
49627;BME280;35527;54.616;39.786;2022-10-23T06:03:01;100016.84;;;5.06;100.00
49627;BME280;35527;54.616;39.786;2022-10-23T06:06:14;100021.94;;;5.09;100.00
49627;BME280;35527;54.616;39.786;2022-10-23T06:09:20;100015.13;;;5.10;100.00
49627;BME280;35527;54.616;39.786;2022-10-23T06:12:30;100014.25;;;5.11;100.00
49627;BME280;35527;54.616;39.786;2022-10-23T06:15:33;100014.19;;;5.15;100.00
49627;BME280;35527;54.616;39.786;2022-10-23T06:18:43;99998.75;;;5.18;100.00
49627;BME280;35527;54.616;39.786;2022-10-23T06:21:51;99990.16;;;5.21;100.00
49627;BME280;35527;54.616;39.786;2022-10-23T06:25:00;100002.13;;;5.20;100.00
49627;BME280;35527;54.616;39.786;2022-10-23T06:28:04;99999.59;;;5.19;100.00
49627;BME280;35527;54.616;39.786;2022-10-23T06:31:12;99997.03;;;5.17;100.00
49627;BME280;35527;54.616;39.786;2022-10-23T06:34:15;99996.88;;;5.30;100.00
49627;BME280;35527;54.616;39.786;2022-10-23T06:37:22;99981.53;;;5.27;100.00
49627;BME280;35527;54.616;39.786;2022-10-23T06:40:41;99977.16;;;5.33;100.00
49627;BME280;35527;54.616;39.786;2022-10-23T06:43:55;99987.41;;;5.33;100.00
49627;BME280;35527;54.616;39.786;2022-10-23T06:47:14;99972.84;;;5.35;100.00
49627;BME280;35527;54.616;39.786;2022-10-23T06:50:57;99976.22;;;5.37;100.00
49627;BME280;35527;54.616;39.786;2022-10-23T06:54:10;99974.47;;;5.41;100.00
49627;BME280;35527;54.616;39.786;2022-10-23T06:57:36;99988.84;;;5.53;100.00
49627;BME280;35527;54.616;39.786;2022-10-23T07:00:42;99974.38;;;5.46;100.00
49627;BME280;35527;54.616;39.786;2022-10-23T07:03:49;99953.72;;;5.53;100.00
49627;BME280;35527;54.616;39.786;2022-10-23T07:06:58;99982.44;;;5.78;100.00
49627;BME280;35527;54.616;39.786;2022-10-23T07:10:37;99954.41;;;5.64;100.00
49627;BME280;35527;54.616;39.786;2022-10-23T07:13:39;99973.34;;;5.57;100.00
49627;BME280;35527;54.616;39.786;2022-10-23T07:16:50;99953.84;;;5.47;100.00
49627;BME280;35527;54.616;39.786;2022-10-23T07:19:53;99956.56;;;5.36;100.00
49627;BME280;35527;54.616;39.786;2022-10-23T07:23:01;99972.75;;;5.40;100.00
49627;BME280;35527;54.616;39.786;2022-10-23T07:26:13;99934.53;;;5.23;100.00
49627;BME280;35527;54.616;39.786;2022-10-23T07:29:18;99966.09;;;5.28;100.00
49627;BME280;35527;54.616;39.786;2022-10-23T07:32:22;99965.25;;;5.28;100.00
49627;BME280;35527;54.616;39.786;2022-10-23T07:35:47;99957.59;;;5.25;100.00
49627;BME280;35527;54.616;39.786;2022-10-23T07:39:00;99940.59;;;5.19;100.00
49627;BME280;35527;54.616;39.786;2022-10-23T07:42:07;99953.22;;;5.31;100.00
49627;BME280;35527;54.616;39.786;2022-10-23T07:45:10;99958.53;;;5.19;100.00
49627;BME280;35527;54.616;39.786;2022-10-23T07:48:17;99934.84;;;5.02;100.00
49627;BME280;35527;54.616;39.786;2022-10-23T07:51:32;99950.16;;;5.08;100.00
49627;BME280;35527;54.616;39.786;2022-10-23T07:54:36;99940.81;;;5.04;100.00
49627;BME280;35527;54.616;39.786;2022-10-23T07:57:59;99928.00;;;5.04;100.00
49627;BME280;35527;54.616;39.786;2022-10-23T08:01:19;99924.56;;;5.03;100.00
49627;BME280;35527;54.616;39.786;2022-10-23T08:04:25;99943.16;;;5.19;100.00
49627;BME280;35527;54.616;39.786;2022-10-23T08:07:37;99940.47;;;5.27;100.00
49627;BME280;35527;54.616;39.786;2022-10-23T08:10:41;99933.53;;;5.33;100.00
49627;BME280;35527;54.616;39.786;2022-10-23T08:13:52;99947.94;;;5.42;100.00
49627;BME280;35527;54.616;39.786;2022-10-23T08:16:58;99944.47;;;5.45;100.00
49627;BME280;35527;54.616;39.786;2022-10-23T08:20:44;99946.19;;;5.42;100.00
49627;BME280;35527;54.616;39.786;2022-10-23T08:23:52;99939.44;;;5.38;100.00
49627;BME280;35527;54.616;39.786;2022-10-23T08:26:59;99942.72;;;5.47;100.00
49627;BME280;35527;54.616;39.786;2022-10-23T08:30:06;99951.47;;;5.33;100.00
49627;BME280;35527;54.616;39.786;2022-10-23T08:33:12;99942.88;;;5.36;100.00
49627;BME280;35527;54.616;39.786;2022-10-23T08:36:23;99924.88;;;5.39;100.00
49627;BME280;35527;54.616;39.786;2022-10-23T08:39:29;99927.59;;;5.28;100.00
49627;BME280;35527;54.616;39.786;2022-10-23T08:43:40;99930.84;;;5.41;100.00
49627;BME280;35527;54.616;39.786;2022-10-23T08:46:34;99928.16;;;5.47;100.00
49627;BME280;35527;54.616;39.786;2022-10-23T08:54:11;99922.81;;;5.61;100.00
49627;BME280;35527;54.616;39.786;2022-10-23T08:57:23;99916.81;;;5.60;100.00
49627;BME280;35527;54.616;39.786;2022-10-23T09:00:30;99921.00;;;5.66;100.00
49627;BME280;35527;54.616;39.786;2022-10-23T09:03:34;99908.25;;;5.60;100.00
49627;BME280;35527;54.616;39.786;2022-10-23T09:06:52;99913.16;;;5.72;100.00
49627;BME280;35527;54.616;39.786;2022-10-23T09:17:27;99894.94;;;5.87;100.00
49627;BME280;35527;54.616;39.786;2022-10-23T09:20:34;99882.06;;;5.89;100.00
49627;BME280;35527;54.616;39.786;2022-10-23T09:23:37;99877.72;;;5.94;100.00
49627;BME280;35527;54.616;39.786;2022-10-23T09:26:45;99880.28;;;5.93;100.00
49627;BME280;35527;54.616;39.786;2022-10-23T09:29:53;99862.25;;;5.97;100.00
49627;BME280;35527;54.616;39.786;2022-10-23T09:32:57;99857.47;;;6.21;100.00
49627;BME280;35527;54.616;39.786;2022-10-23T09:36:04;99853.59;;;6.43;100.00
49627;BME280;35527;54.616;39.786;2022-10-23T09:39:20;99837.66;;;6.66;100.00
49627;BME280;35527;54.616;39.786;2022-10-23T09:42:25;99839.31;;;6.69;100.00
49627;BME280;35527;54.616;39.786;2022-10-23T09:45:32;99841.41;;;6.90;100.00
49627;BME280;35527;54.616;39.786;2022-10-23T09:48:41;99831.25;;;6.84;100.00
49627;BME280;35527;54.616;39.786;2022-10-23T09:52:21;99845.72;;;6.90;100.00
49627;BME280;35527;54.616;39.786;2022-10-23T09:55:24;99833.47;;;6.98;100.00
49627;BME280;35527;54.616;39.786;2022-10-23T09:58:36;99829.06;;;7.05;100.00
49627;BME280;35527;54.616;39.786;2022-10-23T10:01:55;99825.31;;;7.16;100.00
49627;BME280;35527;54.616;39.786;2022-10-23T10:05:30;99826.16;;;7.18;100.00
49627;BME280;35527;54.616;39.786;2022-10-23T10:08:45;99799.44;;;7.21;100.00
49627;BME280;35527;54.616;39.786;2022-10-23T10:11:54;99803.16;;;7.43;100.00
49627;BME280;35527;54.616;39.786;2022-10-23T10:18:29;99798.06;;;7.42;100.00
49627;BME280;35527;54.616;39.786;2022-10-23T10:28:43;99795.34;;;7.47;100.00
49627;BME280;35527;54.616;39.786;2022-10-23T10:31:57;99779.13;;;7.44;100.00
49627;BME280;35527;54.616;39.786;2022-10-23T11:01:35;99761.50;;;7.60;100.00
49627;BME280;35527;54.616;39.786;2022-10-23T11:11:18;99749.78;;;7.50;100.00
49627;BME280;35527;54.616;39.786;2022-10-23T11:14:31;99689.47;;;7.28;100.00
49627;BME280;35527;54.616;39.786;2022-10-23T11:17:39;99742.19;;;7.45;100.00
49627;BME280;35527;54.616;39.786;2022-10-23T11:31:27;99680.03;;;7.28;100.00
49627;BME280;35527;54.616;39.786;2022-10-23T11:34:38;99700.69;;;7.25;100.00
49627;BME280;35527;54.616;39.786;2022-10-23T11:37:56;99686.00;;;7.29;100.00
49627;BME280;35527;54.616;39.786;2022-10-23T11:41:34;99677.94;;;7.41;100.00
49627;BME280;35527;54.616;39.786;2022-10-23T11:44:49;99663.38;;;7.40;100.00
49627;BME280;35527;54.616;39.786;2022-10-23T11:48:40;99675.22;;;7.47;100.00
49627;BME280;35527;54.616;39.786;2022-10-23T11:51:41;99689.03;;;7.43;100.00
49627;BME280;35527;54.616;39.786;2022-10-23T11:54:48;99671.19;;;7.37;100.00
49627;BME280;35527;54.616;39.786;2022-10-23T11:58:12;99678.25;;;7.30;100.00
49627;BME280;35527;54.616;39.786;2022-10-23T12:04:46;99664.69;;;7.23;100.00
49627;BME280;35527;54.616;39.786;2022-10-23T12:07:58;99663.00;;;7.22;100.00
49627;BME280;35527;54.616;39.786;2022-10-23T12:11:02;99627.88;;;6.90;100.00
49627;BME280;35527;54.616;39.786;2022-10-23T12:14:35;99663.28;;;7.13;100.00
49627;BME280;35527;54.616;39.786;2022-10-23T12:17:42;99648.19;;;7.01;100.00
49627;BME280;35527;54.616;39.786;2022-10-23T12:20:59;99630.31;;;6.95;100.00
49627;BME280;35527;54.616;39.786;2022-10-23T12:24:39;99647.09;;;7.08;100.00
49627;BME280;35527;54.616;39.786;2022-10-23T12:27:49;99651.53;;;7.03;100.00
49627;BME280;35527;54.616;39.786;2022-10-23T12:31:13;99650.66;;;7.04;100.00
49627;BME280;35527;54.616;39.786;2022-10-23T12:34:24;99635.44;;;6.95;100.00
49627;BME280;35527;54.616;39.786;2022-10-23T12:37:56;99655.09;;;6.99;100.00
49627;BME280;35527;54.616;39.786;2022-10-23T12:41:26;99628.75;;;6.89;100.00
49627;BME280;35527;54.616;39.786;2022-10-23T12:44:30;99621.28;;;6.80;100.00
49627;BME280;35527;54.616;39.786;2022-10-23T12:47:33;99652.59;;;6.96;100.00
49627;BME280;35527;54.616;39.786;2022-10-23T12:50:36;99634.59;;;6.96;100.00
49627;BME280;35527;54.616;39.786;2022-10-23T12:53:47;99636.25;;;6.98;100.00
49627;BME280;35527;54.616;39.786;2022-10-23T12:56:51;99616.31;;;6.74;100.00
49627;BME280;35527;54.616;39.786;2022-10-23T13:00:00;99644.97;;;6.93;100.00
49627;BME280;35527;54.616;39.786;2022-10-23T13:03:09;99594.09;;;6.71;100.00
49627;BME280;35527;54.616;39.786;2022-10-23T13:06:18;99618.53;;;6.86;100.00
49627;BME280;35527;54.616;39.786;2022-10-23T13:09:37;99616.78;;;6.88;100.00
49627;BME280;35527;54.616;39.786;2022-10-23T13:12:57;99626.44;;;6.80;100.00
49627;BME280;35527;54.616;39.786;2022-10-23T13:16:19;99615.19;;;6.84;100.00
49627;BME280;35527;54.616;39.786;2022-10-23T13:19:23;99608.41;;;6.80;100.00
49627;BME280;35527;54.616;39.786;2022-10-23T13:22:28;99599.97;;;6.75;100.00
49627;BME280;35527;54.616;39.786;2022-10-23T13:25:33;99593.97;;;6.76;100.00
49627;BME280;35527;54.616;39.786;2022-10-23T13:28:42;99585.34;;;6.77;100.00
49627;BME280;35527;54.616;39.786;2022-10-23T13:31:46;99604.72;;;6.90;100.00
49627;BME280;35527;54.616;39.786;2022-10-23T13:34:54;99583.44;;;6.84;100.00
49627;BME280;35527;54.616;39.786;2022-10-23T13:38:07;99587.56;;;6.91;100.00
49627;BME280;35527;54.616;39.786;2022-10-23T13:41:16;99584.19;;;6.89;100.00
49627;BME280;35527;54.616;39.786;2022-10-23T13:44:23;99584.16;;;6.90;100.00
49627;BME280;35527;54.616;39.786;2022-10-23T13:47:27;99582.34;;;6.92;100.00
49627;BME280;35527;54.616;39.786;2022-10-23T13:50:30;99563.94;;;6.76;100.00
49627;BME280;35527;54.616;39.786;2022-10-23T13:53:33;99576.50;;;6.87;100.00
49627;BME280;35527;54.616;39.786;2022-10-23T13:56:38;99558.75;;;6.78;100.00
49627;BME280;35527;54.616;39.786;2022-10-23T13:59:41;99563.97;;;6.75;100.00
49627;BME280;35527;54.616;39.786;2022-10-23T14:02:47;99580.09;;;6.82;100.00
49627;BME280;35527;54.616;39.786;2022-10-23T14:05:52;99582.66;;;6.82;100.00
49627;BME280;35527;54.616;39.786;2022-10-23T14:08:56;99566.53;;;6.75;100.00
49627;BME280;35527;54.616;39.786;2022-10-23T14:12:25;99553.00;;;6.70;100.00
49627;BME280;35527;54.616;39.786;2022-10-23T14:15:28;99569.03;;;6.78;100.00
49627;BME280;35527;54.616;39.786;2022-10-23T14:18:30;99568.28;;;6.74;100.00
49627;BME280;35527;54.616;39.786;2022-10-23T14:21:35;99559.72;;;6.74;100.00
49627;BME280;35527;54.616;39.786;2022-10-23T14:24:41;99557.91;;;6.77;100.00
49627;BME280;35527;54.616;39.786;2022-10-23T14:27:45;99546.19;;;6.67;100.00
49627;BME280;35527;54.616;39.786;2022-10-23T14:30:50;99556.34;;;6.72;100.00
49627;BME280;35527;54.616;39.786;2022-10-23T14:33:57;99563.09;;;6.76;100.00
49627;BME280;35527;54.616;39.786;2022-10-23T14:37:02;99518.31;;;6.52;100.00
49627;BME280;35527;54.616;39.786;2022-10-23T14:40:09;99543.75;;;6.63;100.00
49627;BME280;35527;54.616;39.786;2022-10-23T14:43:14;99555.72;;;6.64;100.00
49627;BME280;35527;54.616;39.786;2022-10-23T14:46:21;99543.75;;;6.63;100.00
49627;BME280;35527;54.616;39.786;2022-10-23T14:49:25;99546.06;;;6.72;100.00
49627;BME280;35527;54.616;39.786;2022-10-23T14:52:27;99536.94;;;6.60;100.00
49627;BME280;35527;54.616;39.786;2022-10-23T14:55:31;99547.13;;;6.65;100.00
49627;BME280;35527;54.616;39.786;2022-10-23T14:58:35;99540.34;;;6.62;100.00
49627;BME280;35527;54.616;39.786;2022-10-23T15:01:42;99545.41;;;6.64;100.00
49627;BME280;35527;54.616;39.786;2022-10-23T15:04:48;99532.78;;;6.56;100.00
49627;BME280;35527;54.616;39.786;2022-10-23T15:07:53;99526.00;;;6.53;100.00
49627;BME280;35527;54.616;39.786;2022-10-23T15:11:02;99540.59;;;6.53;100.00
49627;BME280;35527;54.616;39.786;2022-10-23T15:14:09;99536.28;;;6.53;100.00
49627;BME280;35527;54.616;39.786;2022-10-23T15:17:21;99526.13;;;6.49;100.00
49627;BME280;35527;54.616;39.786;2022-10-23T15:20:24;99523.69;;;6.44;100.00
49627;BME280;35527;54.616;39.786;2022-10-23T15:23:31;99540.63;;;6.51;100.00
49627;BME280;35527;54.616;39.786;2022-10-23T15:26:36;99525.16;;;6.53;100.00
49627;BME280;35527;54.616;39.786;2022-10-23T15:29:43;99513.31;;;6.47;100.00
49627;BME280;35527;54.616;39.786;2022-10-23T15:32:53;99526.09;;;6.50;100.00
49627;BME280;35527;54.616;39.786;2022-10-23T15:35:59;99528.47;;;6.58;100.00
49627;BME280;35527;54.616;39.786;2022-10-23T15:39:06;99525.00;;;6.59;100.00
49627;BME280;35527;54.616;39.786;2022-10-23T15:42:10;99514.97;;;6.50;100.00
49627;BME280;35527;54.616;39.786;2022-10-23T15:45:13;99526.81;;;6.56;100.00
49627;BME280;35527;54.616;39.786;2022-10-23T15:48:18;99522.38;;;6.61;100.00
49627;BME280;35527;54.616;39.786;2022-10-23T15:51:24;99519.03;;;6.57;100.00
49627;BME280;35527;54.616;39.786;2022-10-23T15:54:27;99514.75;;;6.58;100.00
49627;BME280;35527;54.616;39.786;2022-10-23T15:57:34;99504.69;;;6.50;100.00
49627;BME280;35527;54.616;39.786;2022-10-23T16:00:38;99514.75;;;6.58;100.00
49627;BME280;35527;54.616;39.786;2022-10-23T16:03:41;99498.81;;;6.45;100.00
49627;BME280;35527;54.616;39.786;2022-10-23T16:06:45;99505.53;;;6.50;100.00
49627;BME280;35527;54.616;39.786;2022-10-23T16:09:49;99513.06;;;6.57;100.00
49627;BME280;35527;54.616;39.786;2022-10-23T16:12:56;99502.06;;;6.51;100.00
49627;BME280;35527;54.616;39.786;2022-10-23T16:16:04;99512.16;;;6.58;100.00
49627;BME280;35527;54.616;39.786;2022-10-23T16:19:07;99507.03;;;6.58;100.00
49627;BME280;35527;54.616;39.786;2022-10-23T16:22:11;99493.41;;;6.56;100.00
49627;BME280;35527;54.616;39.786;2022-10-23T16:25:16;99487.34;;;6.57;100.00
49627;BME280;35527;54.616;39.786;2022-10-23T16:28:18;99483.78;;;6.61;100.00
49627;BME280;35527;54.616;39.786;2022-10-23T16:31:22;99488.16;;;6.59;100.00
49627;BME280;35527;54.616;39.786;2022-10-23T16:34:25;99489.81;;;6.61;100.00
49627;BME280;35527;54.616;39.786;2022-10-23T16:37:35;99466.78;;;6.57;100.00
49627;BME280;35527;54.616;39.786;2022-10-23T16:40:49;99473.47;;;6.62;100.00
49627;BME280;35527;54.616;39.786;2022-10-23T16:44:25;99456.69;;;6.50;100.00
49627;BME280;35527;54.616;39.786;2022-10-23T16:47:40;99469.28;;;6.60;100.00
49627;BME280;35527;54.616;39.786;2022-10-23T16:50:44;99471.81;;;6.61;100.00
49627;BME280;35527;54.616;39.786;2022-10-23T16:53:48;99469.19;;;6.63;100.00
49627;BME280;35527;54.616;39.786;2022-10-23T16:56:50;99483.69;;;6.65;100.00
49627;BME280;35527;54.616;39.786;2022-10-23T16:59:57;99445.47;;;6.53;100.00
49627;BME280;35527;54.616;39.786;2022-10-23T17:03:02;99475.03;;;6.68;100.00
49627;BME280;35527;54.616;39.786;2022-10-23T17:06:08;99467.25;;;6.69;100.00
49627;BME280;35527;54.616;39.786;2022-10-23T17:09:12;99444.53;;;6.56;100.00
49627;BME280;35527;54.616;39.786;2022-10-23T17:12:16;99446.97;;;6.60;100.00
49627;BME280;35527;54.616;39.786;2022-10-23T17:15:21;99441.69;;;6.65;100.00
49627;BME280;35527;54.616;39.786;2022-10-23T17:18:28;99437.66;;;6.56;100.00
49627;BME280;35527;54.616;39.786;2022-10-23T17:21:32;99434.00;;;6.63;100.00
49627;BME280;35527;54.616;39.786;2022-10-23T17:24:41;99424.63;;;6.62;100.00
49627;BME280;35527;54.616;39.786;2022-10-23T17:27:45;99443.34;;;6.67;100.00
49627;BME280;35527;54.616;39.786;2022-10-23T17:30:48;99405.38;;;6.46;100.00
49627;BME280;35527;54.616;39.786;2022-10-23T17:33:54;99430.97;;;6.50;100.00
49627;BME280;35527;54.616;39.786;2022-10-23T17:37:00;99434.19;;;6.57;100.00
49627;BME280;35527;54.616;39.786;2022-10-23T17:40:02;99432.38;;;6.61;100.00
49627;BME280;35527;54.616;39.786;2022-10-23T17:43:06;99416.13;;;6.60;100.00
49627;BME280;35527;54.616;39.786;2022-10-23T17:46:10;99418.38;;;6.71;100.00
49627;BME280;35527;54.616;39.786;2022-10-23T17:49:14;99430.16;;;6.78;100.00
49627;BME280;35527;54.616;39.786;2022-10-23T17:52:19;99425.97;;;6.75;100.00
49627;BME280;35527;54.616;39.786;2022-10-23T17:55:25;99400.69;;;6.60;100.00
49627;BME280;35527;54.616;39.786;2022-10-23T17:58:29;99400.75;;;6.59;100.00
49627;BME280;35527;54.616;39.786;2022-10-23T18:01:35;99402.47;;;6.58;100.00
49627;BME280;35527;54.616;39.786;2022-10-23T18:04:43;99405.63;;;6.66;100.00
49627;BME280;35527;54.616;39.786;2022-10-23T18:07:51;99408.06;;;6.72;100.00